sensor_id;sensor_type;location;lat;lon;timestamp;P1;durP1;ratioP1;P2;durP2;ratioP2
253;SDS011;590;48.772;8.846;2023-07-08T00:01:10;8.53;;;6.43;;
253;SDS011;590;48.772;8.846;2023-07-08T00:03:39;6.67;;;6.27;;
253;SDS011;590;48.772;8.846;2023-07-08T00:06:09;6.70;;;6.13;;
253;SDS011;590;48.772;8.846;2023-07-08T00:08:40;7.13;;;6.73;;
253;SDS011;590;48.772;8.846;2023-07-08T00:11:09;6.03;;;5.73;;
253;SDS011;590;48.772;8.846;2023-07-08T00:13:38;6.90;;;6.50;;
253;SDS011;590;48.772;8.846;2023-07-08T00:16:09;9.43;;;7.00;;
253;SDS011;590;48.772;8.846;2023-07-08T00:18:38;7.30;;;6.90;;
253;SDS011;590;48.772;8.846;2023-07-08T00:21:08;9.10;;;6.80;;
253;SDS011;590;48.772;8.846;2023-07-08T00:23:43;6.97;;;6.43;;
253;SDS011;590;48.772;8.846;2023-07-08T00:26:13;7.50;;;6.90;;
253;SDS011;590;48.772;8.846;2023-07-08T00:28:45;7.47;;;6.97;;
253;SDS011;590;48.772;8.846;2023-07-08T00:31:15;6.20;;;5.90;;
253;SDS011;590;48.772;8.846;2023-07-08T00:33:43;7.33;;;6.90;;
253;SDS011;590;48.772;8.846;2023-07-08T00:36:11;7.00;;;6.60;;
253;SDS011;590;48.772;8.846;2023-07-08T00:38:41;7.93;;;6.30;;
253;SDS011;590;48.772;8.846;2023-07-08T00:41:12;6.83;;;6.43;;
253;SDS011;590;48.772;8.846;2023-07-08T00:43:45;9.30;;;6.87;;
253;SDS011;590;48.772;8.846;2023-07-08T00:46:20;7.27;;;6.40;;
253;SDS011;590;48.772;8.846;2023-07-08T00:49:13;7.37;;;6.30;;
253;SDS011;590;48.772;8.846;2023-07-08T00:51:48;5.93;;;5.00;;
253;SDS011;590;48.772;8.846;2023-07-08T00:54:17;7.17;;;6.77;;
253;SDS011;590;48.772;8.846;2023-07-08T00:56:47;6.93;;;6.50;;
253;SDS011;590;48.772;8.846;2023-07-08T00:59:21;6.80;;;6.40;;
253;SDS011;590;48.772;8.846;2023-07-08T01:01:53;10.93;;;7.40;;
253;SDS011;590;48.772;8.846;2023-07-08T01:04:23;9.63;;;6.97;;
253;SDS011;590;48.772;8.846;2023-07-08T01:06:56;7.20;;;6.80;;
253;SDS011;590;48.772;8.846;2023-07-08T01:09:31;8.00;;;7.20;;
253;SDS011;590;48.772;8.846;2023-07-08T01:12:02;6.17;;;5.87;;
253;SDS011;590;48.772;8.846;2023-07-08T01:14:35;7.50;;;7.20;;
253;SDS011;590;48.772;8.846;2023-07-08T01:17:06;9.00;;;6.43;;
253;SDS011;590;48.772;8.846;2023-07-08T01:19:34;7.53;;;6.93;;
253;SDS011;590;48.772;8.846;2023-07-08T01:22:06;7.63;;;6.73;;
253;SDS011;590;48.772;8.846;2023-07-08T01:24:36;6.83;;;6.43;;
253;SDS011;590;48.772;8.846;2023-07-08T01:27:07;9.30;;;7.00;;
253;SDS011;590;48.772;8.846;2023-07-08T01:29:38;8.07;;;6.80;;
253;SDS011;590;48.772;8.846;2023-07-08T01:32:06;7.67;;;7.27;;
253;SDS011;590;48.772;8.846;2023-07-08T01:34:40;6.60;;;6.20;;
253;SDS011;590;48.772;8.846;2023-07-08T01:37:10;7.90;;;6.80;;
253;SDS011;590;48.772;8.846;2023-07-08T01:39:39;7.20;;;6.43;;
253;SDS011;590;48.772;8.846;2023-07-08T01:42:07;6.43;;;6.07;;
253;SDS011;590;48.772;8.846;2023-07-08T01:44:36;8.37;;;7.40;;
253;SDS011;590;48.772;8.846;2023-07-08T01:47:04;7.70;;;7.33;;
253;SDS011;590;48.772;8.846;2023-07-08T01:49:38;8.07;;;7.47;;
253;SDS011;590;48.772;8.846;2023-07-08T01:52:10;7.97;;;6.23;;
253;SDS011;590;48.772;8.846;2023-07-08T01:54:39;7.40;;;7.00;;
253;SDS011;590;48.772;8.846;2023-07-08T01:57:07;6.67;;;6.30;;
253;SDS011;590;48.772;8.846;2023-07-08T01:59:36;7.23;;;6.87;;
253;SDS011;590;48.772;8.846;2023-07-08T02:02:04;7.00;;;6.60;;
253;SDS011;590;48.772;8.846;2023-07-08T02:04:32;8.07;;;6.83;;
253;SDS011;590;48.772;8.846;2023-07-08T02:07:00;8.33;;;7.10;;
253;SDS011;590;48.772;8.846;2023-07-08T02:09:30;7.50;;;6.87;;
253;SDS011;590;48.772;8.846;2023-07-08T02:11:58;7.97;;;6.97;;
253;SDS011;590;48.772;8.846;2023-07-08T02:14:26;8.80;;;7.37;;
253;SDS011;590;48.772;8.846;2023-07-08T02:16:54;7.60;;;7.17;;
253;SDS011;590;48.772;8.846;2023-07-08T02:19:22;7.30;;;6.90;;
253;SDS011;590;48.772;8.846;2023-07-08T02:21:50;10.27;;;7.57;;
253;SDS011;590;48.772;8.846;2023-07-08T02:24:18;6.90;;;6.47;;
253;SDS011;590;48.772;8.846;2023-07-08T02:26:49;6.33;;;5.97;;
253;SDS011;590;48.772;8.846;2023-07-08T02:29:17;8.13;;;6.60;;
253;SDS011;590;48.772;8.846;2023-07-08T02:31:45;7.73;;;6.57;;
253;SDS011;590;48.772;8.846;2023-07-08T02:34:14;6.93;;;6.53;;
253;SDS011;590;48.772;8.846;2023-07-08T02:36:42;6.73;;;6.33;;
253;SDS011;590;48.772;8.846;2023-07-08T02:39:10;7.57;;;7.23;;
253;SDS011;590;48.772;8.846;2023-07-08T02:41:38;8.03;;;7.37;;
253;SDS011;590;48.772;8.846;2023-07-08T02:44:07;7.20;;;6.80;;
253;SDS011;590;48.772;8.846;2023-07-08T02:46:35;8.30;;;7.47;;
253;SDS011;590;48.772;8.846;2023-07-08T02:49:03;7.27;;;6.63;;
253;SDS011;590;48.772;8.846;2023-07-08T02:51:32;7.50;;;7.10;;
253;SDS011;590;48.772;8.846;2023-07-08T02:54:00;7.17;;;6.80;;
253;SDS011;590;48.772;8.846;2023-07-08T02:56:28;7.20;;;6.80;;
253;SDS011;590;48.772;8.846;2023-07-08T02:58:56;6.97;;;6.60;;
253;SDS011;590;48.772;8.846;2023-07-08T03:01:25;7.63;;;6.97;;
253;SDS011;590;48.772;8.846;2023-07-08T03:03:53;8.50;;;7.40;;
253;SDS011;590;48.772;8.846;2023-07-08T03:06:26;8.00;;;7.67;;
253;SDS011;590;48.772;8.846;2023-07-08T03:08:55;7.87;;;7.00;;
253;SDS011;590;48.772;8.846;2023-07-08T03:11:23;7.33;;;6.93;;
253;SDS011;590;48.772;8.846;2023-07-08T03:13:51;8.70;;;7.70;;
253;SDS011;590;48.772;8.846;2023-07-08T03:16:19;7.93;;;7.57;;
253;SDS011;590;48.772;8.846;2023-07-08T03:18:48;7.70;;;7.30;;
253;SDS011;590;48.772;8.846;2023-07-08T03:21:17;9.10;;;7.30;;
253;SDS011;590;48.772;8.846;2023-07-08T03:23:46;7.07;;;6.67;;
253;SDS011;590;48.772;8.846;2023-07-08T03:26:16;7.33;;;6.70;;
253;SDS011;590;48.772;8.846;2023-07-08T03:28:46;7.77;;;7.37;;
253;SDS011;590;48.772;8.846;2023-07-08T03:31:14;8.57;;;7.70;;
253;SDS011;590;48.772;8.846;2023-07-08T03:33:43;7.53;;;6.87;;
253;SDS011;590;48.772;8.846;2023-07-08T03:36:13;7.33;;;6.93;;
253;SDS011;590;48.772;8.846;2023-07-08T03:38:49;7.50;;;6.67;;
253;SDS011;590;48.772;8.846;2023-07-08T03:41:18;7.03;;;6.67;;
253;SDS011;590;48.772;8.846;2023-07-08T03:43:47;7.50;;;6.37;;
253;SDS011;590;48.772;8.846;2023-07-08T03:46:17;7.83;;;6.93;;
253;SDS011;590;48.772;8.846;2023-07-08T03:48:47;7.73;;;7.33;;
253;SDS011;590;48.772;8.846;2023-07-08T03:51:19;8.53;;;6.77;;
253;SDS011;590;48.772;8.846;2023-07-08T03:53:50;7.00;;;6.60;;
253;SDS011;590;48.772;8.846;2023-07-08T03:56:18;6.67;;;6.27;;
253;SDS011;590;48.772;8.846;2023-07-08T03:58:47;8.23;;;7.40;;
253;SDS011;590;48.772;8.846;2023-07-08T04:01:15;7.50;;;7.13;;
253;SDS011;590;48.772;8.846;2023-07-08T04:03:44;7.37;;;6.80;;
253;SDS011;590;48.772;8.846;2023-07-08T04:06:12;6.40;;;6.00;;
253;SDS011;590;48.772;8.846;2023-07-08T04:08:42;7.53;;;7.13;;
253;SDS011;590;48.772;8.846;2023-07-08T04:11:11;8.33;;;7.30;;
253;SDS011;590;48.772;8.846;2023-07-08T04:13:41;7.03;;;6.50;;
253;SDS011;590;48.772;8.846;2023-07-08T04:16:10;8.00;;;7.30;;
253;SDS011;590;48.772;8.846;2023-07-08T04:18:46;7.53;;;7.10;;
253;SDS011;590;48.772;8.846;2023-07-08T04:21:17;6.13;;;5.80;;
253;SDS011;590;48.772;8.846;2023-07-08T04:23:50;8.10;;;7.33;;
253;SDS011;590;48.772;8.846;2023-07-08T04:26:18;7.63;;;7.07;;
253;SDS011;590;48.772;8.846;2023-07-08T04:28:47;6.97;;;6.57;;
253;SDS011;590;48.772;8.846;2023-07-08T04:31:15;7.50;;;7.03;;
253;SDS011;590;48.772;8.846;2023-07-08T04:33:43;7.53;;;6.60;;
253;SDS011;590;48.772;8.846;2023-07-08T04:36:11;8.17;;;6.83;;
253;SDS011;590;48.772;8.846;2023-07-08T04:38:41;6.93;;;6.57;;
253;SDS011;590;48.772;8.846;2023-07-08T04:41:14;6.97;;;6.10;;
253;SDS011;590;48.772;8.846;2023-07-08T04:43:42;7.53;;;6.30;;
253;SDS011;590;48.772;8.846;2023-07-08T04:46:17;9.67;;;7.10;;
253;SDS011;590;48.772;8.846;2023-07-08T04:48:48;7.03;;;6.63;;
253;SDS011;590;48.772;8.846;2023-07-08T04:51:16;7.00;;;6.60;;
253;SDS011;590;48.772;8.846;2023-07-08T04:53:45;7.57;;;7.17;;
253;SDS011;590;48.772;8.846;2023-07-08T04:56:15;7.93;;;7.10;;
253;SDS011;590;48.772;8.846;2023-07-08T04:58:42;7.60;;;7.17;;
253;SDS011;590;48.772;8.846;2023-07-08T05:01:11;8.27;;;7.00;;
253;SDS011;590;48.772;8.846;2023-07-08T05:03:39;7.57;;;6.60;;
253;SDS011;590;48.772;8.846;2023-07-08T05:06:07;7.70;;;7.30;;
253;SDS011;590;48.772;8.846;2023-07-08T05:08:35;7.37;;;6.97;;
253;SDS011;590;48.772;8.846;2023-07-08T05:11:03;9.00;;;7.30;;
253;SDS011;590;48.772;8.846;2023-07-08T05:13:32;9.77;;;7.87;;
253;SDS011;590;48.772;8.846;2023-07-08T05:16:00;8.20;;;7.27;;
253;SDS011;590;48.772;8.846;2023-07-08T05:18:28;8.20;;;7.40;;
253;SDS011;590;48.772;8.846;2023-07-08T05:20:56;6.97;;;6.57;;
253;SDS011;590;48.772;8.846;2023-07-08T05:23:25;7.30;;;6.90;;
253;SDS011;590;48.772;8.846;2023-07-08T05:25:53;7.67;;;7.30;;
253;SDS011;590;48.772;8.846;2023-07-08T05:28:21;7.50;;;7.07;;
253;SDS011;590;48.772;8.846;2023-07-08T05:30:53;7.87;;;7.50;;
253;SDS011;590;48.772;8.846;2023-07-08T05:33:22;7.83;;;7.43;;
253;SDS011;590;48.772;8.846;2023-07-08T05:35:50;7.13;;;6.73;;
253;SDS011;590;48.772;8.846;2023-07-08T05:38:18;7.60;;;6.80;;
253;SDS011;590;48.772;8.846;2023-07-08T05:40:47;7.00;;;6.60;;
253;SDS011;590;48.772;8.846;2023-07-08T05:43:16;8.47;;;6.50;;
253;SDS011;590;48.772;8.846;2023-07-08T05:45:44;7.07;;;6.67;;
253;SDS011;590;48.772;8.846;2023-07-08T05:48:32;7.33;;;6.97;;
253;SDS011;590;48.772;8.846;2023-07-08T05:51:00;7.90;;;6.53;;
253;SDS011;590;48.772;8.846;2023-07-08T05:53:28;7.27;;;6.87;;
253;SDS011;590;48.772;8.846;2023-07-08T05:55:56;6.60;;;6.20;;
253;SDS011;590;48.772;8.846;2023-07-08T05:58:24;6.83;;;6.43;;
253;SDS011;590;48.772;8.846;2023-07-08T06:00:56;7.43;;;7.03;;
253;SDS011;590;48.772;8.846;2023-07-08T06:03:25;7.30;;;6.90;;
253;SDS011;590;48.772;8.846;2023-07-08T06:05:54;7.03;;;6.63;;
253;SDS011;590;48.772;8.846;2023-07-08T06:08:22;6.70;;;6.30;;
253;SDS011;590;48.772;8.846;2023-07-08T06:10:51;8.20;;;6.53;;
253;SDS011;590;48.772;8.846;2023-07-08T06:13:19;8.63;;;6.97;;
253;SDS011;590;48.772;8.846;2023-07-08T06:15:47;6.33;;;5.63;;
253;SDS011;590;48.772;8.846;2023-07-08T06:18:15;5.97;;;5.70;;
253;SDS011;590;48.772;8.846;2023-07-08T06:20:50;5.50;;;5.20;;
253;SDS011;590;48.772;8.846;2023-07-08T06:23:20;5.50;;;5.20;;
253;SDS011;590;48.772;8.846;2023-07-08T06:25:48;5.30;;;5.00;;
253;SDS011;590;48.772;8.846;2023-07-08T06:28:16;5.67;;;5.27;;
253;SDS011;590;48.772;8.846;2023-07-08T06:30:44;5.17;;;4.83;;
253;SDS011;590;48.772;8.846;2023-07-08T06:33:13;5.40;;;5.10;;
253;SDS011;590;48.772;8.846;2023-07-08T06:35:41;4.87;;;4.40;;
253;SDS011;590;48.772;8.846;2023-07-08T06:38:10;5.47;;;4.93;;
253;SDS011;590;48.772;8.846;2023-07-08T06:40:39;5.37;;;5.07;;
253;SDS011;590;48.772;8.846;2023-07-08T06:43:07;5.17;;;4.87;;
253;SDS011;590;48.772;8.846;2023-07-08T06:45:35;5.43;;;4.50;;
253;SDS011;590;48.772;8.846;2023-07-08T06:48:03;4.77;;;4.50;;
253;SDS011;590;48.772;8.846;2023-07-08T06:50:32;3.97;;;3.47;;
253;SDS011;590;48.772;8.846;2023-07-08T06:53:00;5.80;;;4.37;;
253;SDS011;590;48.772;8.846;2023-07-08T06:55:28;4.30;;;4.00;;
253;SDS011;590;48.772;8.846;2023-07-08T06:57:57;3.80;;;3.60;;
253;SDS011;590;48.772;8.846;2023-07-08T07:00:25;4.50;;;4.00;;
253;SDS011;590;48.772;8.846;2023-07-08T07:02:53;4.70;;;3.67;;
253;SDS011;590;48.772;8.846;2023-07-08T07:05:21;5.73;;;4.47;;
253;SDS011;590;48.772;8.846;2023-07-08T07:07:50;4.37;;;4.10;;
253;SDS011;590;48.772;8.846;2023-07-08T07:10:19;4.00;;;3.80;;
253;SDS011;590;48.772;8.846;2023-07-08T07:12:47;3.83;;;3.63;;
253;SDS011;590;48.772;8.846;2023-07-08T07:15:16;4.90;;;4.40;;
253;SDS011;590;48.772;8.846;2023-07-08T07:17:44;3.87;;;3.67;;
253;SDS011;590;48.772;8.846;2023-07-08T07:20:12;4.03;;;3.73;;
253;SDS011;590;48.772;8.846;2023-07-08T07:22:41;4.67;;;4.30;;
253;SDS011;590;48.772;8.846;2023-07-08T07:25:09;4.10;;;3.23;;
253;SDS011;590;48.772;8.846;2023-07-08T07:27:37;4.50;;;3.40;;
253;SDS011;590;48.772;8.846;2023-07-08T07:30:06;5.83;;;3.63;;
253;SDS011;590;48.772;8.846;2023-07-08T07:32:40;2.90;;;2.70;;
253;SDS011;590;48.772;8.846;2023-07-08T07:35:09;4.27;;;3.43;;
253;SDS011;590;48.772;8.846;2023-07-08T07:37:39;3.50;;;3.30;;
253;SDS011;590;48.772;8.846;2023-07-08T07:40:08;3.57;;;3.37;;
253;SDS011;590;48.772;8.846;2023-07-08T07:42:39;3.90;;;3.50;;
253;SDS011;590;48.772;8.846;2023-07-08T07:45:08;3.20;;;2.97;;
253;SDS011;590;48.772;8.846;2023-07-08T07:47:37;4.03;;;3.53;;
253;SDS011;590;48.772;8.846;2023-07-08T07:50:07;3.80;;;3.47;;
253;SDS011;590;48.772;8.846;2023-07-08T07:52:37;3.83;;;3.10;;
253;SDS011;590;48.772;8.846;2023-07-08T07:55:05;2.97;;;2.77;;
253;SDS011;590;48.772;8.846;2023-07-08T07:57:35;2.97;;;2.63;;
253;SDS011;590;48.772;8.846;2023-07-08T08:00:03;3.00;;;2.77;;
253;SDS011;590;48.772;8.846;2023-07-08T08:02:32;3.53;;;3.33;;
253;SDS011;590;48.772;8.846;2023-07-08T08:05:00;3.03;;;2.83;;
253;SDS011;590;48.772;8.846;2023-07-08T08:07:29;3.03;;;2.77;;
253;SDS011;590;48.772;8.846;2023-07-08T08:09:57;3.67;;;2.83;;
253;SDS011;590;48.772;8.846;2023-07-08T08:12:25;3.90;;;3.10;;
253;SDS011;590;48.772;8.846;2023-07-08T08:15:06;4.30;;;2.77;;
253;SDS011;590;48.772;8.846;2023-07-08T08:17:35;3.30;;;2.87;;
253;SDS011;590;48.772;8.846;2023-07-08T08:20:04;2.50;;;2.30;;
253;SDS011;590;48.772;8.846;2023-07-08T08:22:34;2.70;;;2.50;;
253;SDS011;590;48.772;8.846;2023-07-08T08:25:02;2.37;;;2.17;;
253;SDS011;590;48.772;8.846;2023-07-08T08:27:31;5.03;;;3.37;;
253;SDS011;590;48.772;8.846;2023-07-08T08:29:59;3.00;;;2.80;;
253;SDS011;590;48.772;8.846;2023-07-08T08:32:27;3.87;;;3.00;;
253;SDS011;590;48.772;8.846;2023-07-08T08:34:55;3.00;;;2.80;;
253;SDS011;590;48.772;8.846;2023-07-08T08:37:25;3.10;;;2.67;;
253;SDS011;590;48.772;8.846;2023-07-08T08:39:55;4.80;;;2.87;;
253;SDS011;590;48.772;8.846;2023-07-08T08:42:24;3.10;;;2.83;;
253;SDS011;590;48.772;8.846;2023-07-08T08:44:54;4.53;;;3.13;;
253;SDS011;590;48.772;8.846;2023-07-08T08:47:27;3.30;;;3.10;;
253;SDS011;590;48.772;8.846;2023-07-08T08:50:04;3.30;;;3.00;;
253;SDS011;590;48.772;8.846;2023-07-08T08:52:46;6.03;;;3.00;;
253;SDS011;590;48.772;8.846;2023-07-08T08:55:15;4.33;;;2.73;;
253;SDS011;590;48.772;8.846;2023-07-08T08:57:45;5.53;;;2.67;;
253;SDS011;590;48.772;8.846;2023-07-08T09:00:19;2.97;;;2.80;;
253;SDS011;590;48.772;8.846;2023-07-08T09:02:52;2.50;;;2.30;;
253;SDS011;590;48.772;8.846;2023-07-08T09:05:26;4.03;;;2.80;;
253;SDS011;590;48.772;8.846;2023-07-08T09:07:59;3.87;;;2.80;;
253;SDS011;590;48.772;8.846;2023-07-08T09:10:35;2.27;;;2.10;;
253;SDS011;590;48.772;8.846;2023-07-08T09:13:14;5.33;;;2.70;;
253;SDS011;590;48.772;8.846;2023-07-08T09:15:59;4.70;;;2.63;;
253;SDS011;590;48.772;8.846;2023-07-08T09:18:36;9.67;;;2.27;;
253;SDS011;590;48.772;8.846;2023-07-08T09:21:14;2.60;;;2.30;;
253;SDS011;590;48.772;8.846;2023-07-08T09:23:46;3.03;;;2.30;;
253;SDS011;590;48.772;8.846;2023-07-08T09:26:19;2.73;;;2.53;;
253;SDS011;590;48.772;8.846;2023-07-08T09:28:51;2.50;;;2.27;;
253;SDS011;590;48.772;8.846;2023-07-08T09:31:21;3.40;;;2.40;;
253;SDS011;590;48.772;8.846;2023-07-08T09:33:52;2.50;;;2.30;;
253;SDS011;590;48.772;8.846;2023-07-08T09:36:22;3.50;;;2.43;;
253;SDS011;590;48.772;8.846;2023-07-08T09:38:51;2.87;;;2.70;;
253;SDS011;590;48.772;8.846;2023-07-08T09:41:31;2.67;;;1.90;;
253;SDS011;590;48.772;8.846;2023-07-08T09:44:05;3.43;;;2.43;;
253;SDS011;590;48.772;8.846;2023-07-08T09:46:38;4.73;;;2.80;;
253;SDS011;590;48.772;8.846;2023-07-08T09:49:12;3.30;;;2.80;;
253;SDS011;590;48.772;8.846;2023-07-08T09:51:44;2.43;;;2.23;;
253;SDS011;590;48.772;8.846;2023-07-08T09:54:13;2.50;;;2.30;;
253;SDS011;590;48.772;8.846;2023-07-08T09:56:43;2.67;;;2.50;;
253;SDS011;590;48.772;8.846;2023-07-08T09:59:16;2.40;;;2.20;;
253;SDS011;590;48.772;8.846;2023-07-08T10:01:49;2.80;;;2.60;;
253;SDS011;590;48.772;8.846;2023-07-08T10:04:17;2.60;;;2.30;;
253;SDS011;590;48.772;8.846;2023-07-08T10:06:46;2.43;;;2.20;;
253;SDS011;590;48.772;8.846;2023-07-08T10:09:23;4.90;;;2.97;;
253;SDS011;590;48.772;8.846;2023-07-08T10:11:54;2.83;;;2.30;;
253;SDS011;590;48.772;8.846;2023-07-08T10:14:44;3.10;;;2.10;;
253;SDS011;590;48.772;8.846;2023-07-08T10:17:16;2.30;;;2.10;;
253;SDS011;590;48.772;8.846;2023-07-08T10:19:46;1.77;;;1.60;;
253;SDS011;590;48.772;8.846;2023-07-08T10:22:19;3.03;;;2.50;;
253;SDS011;590;48.772;8.846;2023-07-08T10:24:58;2.70;;;2.23;;
253;SDS011;590;48.772;8.846;2023-07-08T10:27:36;2.97;;;2.77;;
253;SDS011;590;48.772;8.846;2023-07-08T10:30:16;2.83;;;2.53;;
253;SDS011;590;48.772;8.846;2023-07-08T10:33:04;2.93;;;1.70;;
253;SDS011;590;48.772;8.846;2023-07-08T10:35:45;1.97;;;1.70;;
253;SDS011;590;48.772;8.846;2023-07-08T10:38:40;2.80;;;2.27;;
253;SDS011;590;48.772;8.846;2023-07-08T10:41:17;2.43;;;1.90;;
253;SDS011;590;48.772;8.846;2023-07-08T10:43:58;2.50;;;2.30;;
253;SDS011;590;48.772;8.846;2023-07-08T10:46:35;2.60;;;2.47;;
253;SDS011;590;48.772;8.846;2023-07-08T10:49:15;2.70;;;2.17;;
253;SDS011;590;48.772;8.846;2023-07-08T10:52:01;3.00;;;2.60;;
253;SDS011;590;48.772;8.846;2023-07-08T10:54:48;2.87;;;2.50;;
253;SDS011;590;48.772;8.846;2023-07-08T10:57:35;2.83;;;2.57;;
253;SDS011;590;48.772;8.846;2023-07-08T11:00:24;3.00;;;2.80;;
253;SDS011;590;48.772;8.846;2023-07-08T11:03:03;5.17;;;2.77;;
253;SDS011;590;48.772;8.846;2023-07-08T11:05:48;3.10;;;2.90;;
253;SDS011;590;48.772;8.846;2023-07-08T11:08:25;3.97;;;2.60;;
253;SDS011;590;48.772;8.846;2023-07-08T11:10:57;3.00;;;2.80;;
253;SDS011;590;48.772;8.846;2023-07-08T11:13:42;2.60;;;2.40;;
253;SDS011;590;48.772;8.846;2023-07-08T11:16:19;2.67;;;2.47;;
253;SDS011;590;48.772;8.846;2023-07-08T11:18:52;3.53;;;2.80;;
253;SDS011;590;48.772;8.846;2023-07-08T11:21:26;2.70;;;2.50;;
253;SDS011;590;48.772;8.846;2023-07-08T11:24:00;2.87;;;2.67;;
253;SDS011;590;48.772;8.846;2023-07-08T11:26:33;4.80;;;3.37;;
253;SDS011;590;48.772;8.846;2023-07-08T11:29:09;4.83;;;2.27;;
253;SDS011;590;48.772;8.846;2023-07-08T11:31:46;3.57;;;3.43;;
253;SDS011;590;48.772;8.846;2023-07-08T11:34:17;5.07;;;4.40;;
253;SDS011;590;48.772;8.846;2023-07-08T11:36:46;4.80;;;3.93;;
253;SDS011;590;48.772;8.846;2023-07-08T11:39:25;5.00;;;4.70;;
253;SDS011;590;48.772;8.846;2023-07-08T11:42:03;4.47;;;4.17;;
253;SDS011;590;48.772;8.846;2023-07-08T11:44:41;4.87;;;3.83;;
253;SDS011;590;48.772;8.846;2023-07-08T11:47:13;3.77;;;3.57;;
253;SDS011;590;48.772;8.846;2023-07-08T11:49:46;3.90;;;3.60;;
253;SDS011;590;48.772;8.846;2023-07-08T11:52:16;6.30;;;4.13;;
253;SDS011;590;48.772;8.846;2023-07-08T11:57:17;3.67;;;3.30;;
253;SDS011;590;48.772;8.846;2023-07-08T12:00:05;4.63;;;4.37;;
253;SDS011;590;48.772;8.846;2023-07-08T12:02:49;4.37;;;4.07;;
253;SDS011;590;48.772;8.846;2023-07-08T12:05:28;4.00;;;3.80;;
253;SDS011;590;48.772;8.846;2023-07-08T12:07:58;8.18;;;3.90;;
253;SDS011;590;48.772;8.846;2023-07-08T12:10:32;3.90;;;3.72;;
253;SDS011;590;48.772;8.846;2023-07-08T12:13:05;3.83;;;3.60;;
253;SDS011;590;48.772;8.846;2023-07-08T12:15:39;3.93;;;3.73;;
253;SDS011;590;48.772;8.846;2023-07-08T12:18:10;4.10;;;3.90;;
253;SDS011;590;48.772;8.846;2023-07-08T12:20:42;4.57;;;4.07;;
253;SDS011;590;48.772;8.846;2023-07-08T12:23:14;3.80;;;3.60;;
253;SDS011;590;48.772;8.846;2023-07-08T12:25:45;4.28;;;3.40;;
253;SDS011;590;48.772;8.846;2023-07-08T12:28:14;3.60;;;3.40;;
253;SDS011;590;48.772;8.846;2023-07-08T12:30:43;3.80;;;3.23;;
253;SDS011;590;48.772;8.846;2023-07-08T12:33:13;3.60;;;3.40;;
253;SDS011;590;48.772;8.846;2023-07-08T12:35:45;3.13;;;2.93;;
253;SDS011;590;48.772;8.846;2023-07-08T12:38:17;4.17;;;3.93;;
253;SDS011;590;48.772;8.846;2023-07-08T12:40:49;3.47;;;3.27;;
253;SDS011;590;48.772;8.846;2023-07-08T12:43:19;4.30;;;3.70;;
253;SDS011;590;48.772;8.846;2023-07-08T12:45:47;3.20;;;3.00;;
253;SDS011;590;48.772;8.846;2023-07-08T12:48:15;3.43;;;3.30;;
253;SDS011;590;48.772;8.846;2023-07-08T12:50:43;4.60;;;4.30;;
253;SDS011;590;48.772;8.846;2023-07-08T12:53:11;4.50;;;3.57;;
253;SDS011;590;48.772;8.846;2023-07-08T12:55:40;3.83;;;3.37;;
253;SDS011;590;48.772;8.846;2023-07-08T12:58:12;3.90;;;3.70;;
253;SDS011;590;48.772;8.846;2023-07-08T13:00:43;3.47;;;3.27;;
253;SDS011;590;48.772;8.846;2023-07-08T13:03:13;3.97;;;3.57;;
253;SDS011;590;48.772;8.846;2023-07-08T13:05:44;3.13;;;2.93;;
253;SDS011;590;48.772;8.846;2023-07-08T13:08:13;3.83;;;3.17;;
253;SDS011;590;48.772;8.846;2023-07-08T13:10:42;3.63;;;3.43;;
253;SDS011;590;48.772;8.846;2023-07-08T13:13:12;3.37;;;3.20;;
253;SDS011;590;48.772;8.846;2023-07-08T13:15:48;3.60;;;3.40;;
253;SDS011;590;48.772;8.846;2023-07-08T13:18:18;3.97;;;3.77;;
253;SDS011;590;48.772;8.846;2023-07-08T13:20:48;3.60;;;3.40;;
253;SDS011;590;48.772;8.846;2023-07-08T13:23:18;3.30;;;3.10;;
253;SDS011;590;48.772;8.846;2023-07-08T13:25:49;2.97;;;2.77;;
253;SDS011;590;48.772;8.846;2023-07-08T13:28:18;3.53;;;2.93;;
253;SDS011;590;48.772;8.846;2023-07-08T13:30:51;4.60;;;3.33;;
253;SDS011;590;48.772;8.846;2023-07-08T13:33:21;3.90;;;3.70;;
253;SDS011;590;48.772;8.846;2023-07-08T13:35:50;3.70;;;3.60;;
253;SDS011;590;48.772;8.846;2023-07-08T13:38:20;4.13;;;3.73;;
253;SDS011;590;48.772;8.846;2023-07-08T13:40:52;4.83;;;3.60;;
253;SDS011;590;48.772;8.846;2023-07-08T13:43:22;4.03;;;3.83;;
253;SDS011;590;48.772;8.846;2023-07-08T13:45:53;4.33;;;3.50;;
253;SDS011;590;48.772;8.846;2023-07-08T13:48:23;4.00;;;3.80;;
253;SDS011;590;48.772;8.846;2023-07-08T13:50:55;3.90;;;3.03;;
253;SDS011;590;48.772;8.846;2023-07-08T13:53:33;2.93;;;2.73;;
253;SDS011;590;48.772;8.846;2023-07-08T13:56:11;3.83;;;3.53;;
253;SDS011;590;48.772;8.846;2023-07-08T13:58:42;4.27;;;2.90;;
253;SDS011;590;48.772;8.846;2023-07-08T14:01:14;5.77;;;3.00;;
253;SDS011;590;48.772;8.846;2023-07-08T14:03:48;3.80;;;3.60;;
253;SDS011;590;48.772;8.846;2023-07-08T14:06:17;3.60;;;3.43;;
253;SDS011;590;48.772;8.846;2023-07-08T14:08:46;3.50;;;3.30;;
253;SDS011;590;48.772;8.846;2023-07-08T14:11:14;3.57;;;3.00;;
253;SDS011;590;48.772;8.846;2023-07-08T14:13:42;3.27;;;3.03;;
253;SDS011;590;48.772;8.846;2023-07-08T14:16:15;4.17;;;3.10;;
253;SDS011;590;48.772;8.846;2023-07-08T14:18:50;3.60;;;3.40;;
253;SDS011;590;48.772;8.846;2023-07-08T14:21:19;3.03;;;2.90;;
253;SDS011;590;48.772;8.846;2023-07-08T14:23:47;3.57;;;3.37;;
253;SDS011;590;48.772;8.846;2023-07-08T14:26:15;3.57;;;3.20;;
253;SDS011;590;48.772;8.846;2023-07-08T14:28:43;4.40;;;2.77;;
253;SDS011;590;48.772;8.846;2023-07-08T14:31:12;3.80;;;3.60;;
253;SDS011;590;48.772;8.846;2023-07-08T14:33:43;3.63;;;3.33;;
253;SDS011;590;48.772;8.846;2023-07-08T14:36:11;3.30;;;2.83;;
253;SDS011;590;48.772;8.846;2023-07-08T14:38:40;3.50;;;3.30;;
253;SDS011;590;48.772;8.846;2023-07-08T14:41:08;4.00;;;3.80;;
253;SDS011;590;48.772;8.846;2023-07-08T14:43:36;4.00;;;3.40;;
253;SDS011;590;48.772;8.846;2023-07-08T14:46:08;4.00;;;3.20;;
253;SDS011;590;48.772;8.846;2023-07-08T14:48:37;3.17;;;2.97;;
253;SDS011;590;48.772;8.846;2023-07-08T14:51:07;5.37;;;3.83;;
253;SDS011;590;48.772;8.846;2023-07-08T14:53:35;3.40;;;3.20;;
253;SDS011;590;48.772;8.846;2023-07-08T14:56:06;3.63;;;3.43;;
253;SDS011;590;48.772;8.846;2023-07-08T14:58:43;3.20;;;3.00;;
253;SDS011;590;48.772;8.846;2023-07-08T15:01:15;3.20;;;3.00;;
253;SDS011;590;48.772;8.846;2023-07-08T15:03:46;3.27;;;3.07;;
253;SDS011;590;48.772;8.846;2023-07-08T15:06:16;2.67;;;2.50;;
253;SDS011;590;48.772;8.846;2023-07-08T15:08:44;2.60;;;2.40;;
253;SDS011;590;48.772;8.846;2023-07-08T15:11:12;3.80;;;3.60;;
253;SDS011;590;48.772;8.846;2023-07-08T15:13:41;4.30;;;3.90;;
253;SDS011;590;48.772;8.846;2023-07-08T15:16:12;4.17;;;3.70;;
253;SDS011;590;48.772;8.846;2023-07-08T15:18:42;6.50;;;3.80;;
253;SDS011;590;48.772;8.846;2023-07-08T15:21:11;5.23;;;3.83;;
253;SDS011;590;48.772;8.846;2023-07-08T15:23:41;3.90;;;3.70;;
253;SDS011;590;48.772;8.846;2023-07-08T15:26:09;4.27;;;3.33;;
253;SDS011;590;48.772;8.846;2023-07-08T15:28:39;4.33;;;3.77;;
253;SDS011;590;48.772;8.846;2023-07-08T15:31:14;3.40;;;3.20;;
253;SDS011;590;48.772;8.846;2023-07-08T15:33:43;3.40;;;2.73;;
253;SDS011;590;48.772;8.846;2023-07-08T15:36:12;3.67;;;3.47;;
253;SDS011;590;48.772;8.846;2023-07-08T15:38:42;4.00;;;3.57;;
253;SDS011;590;48.772;8.846;2023-07-08T15:41:13;3.57;;;3.37;;
253;SDS011;590;48.772;8.846;2023-07-08T15:43:45;3.17;;;2.97;;
253;SDS011;590;48.772;8.846;2023-07-08T15:46:14;3.53;;;3.30;;
253;SDS011;590;48.772;8.846;2023-07-08T15:48:42;3.77;;;3.57;;
253;SDS011;590;48.772;8.846;2023-07-08T15:51:12;4.57;;;3.77;;
253;SDS011;590;48.772;8.846;2023-07-08T15:53:42;3.80;;;3.60;;
253;SDS011;590;48.772;8.846;2023-07-08T15:56:10;3.70;;;3.50;;
253;SDS011;590;48.772;8.846;2023-07-08T15:58:41;3.87;;;3.67;;
253;SDS011;590;48.772;8.846;2023-07-08T16:01:13;3.43;;;3.27;;
253;SDS011;590;48.772;8.846;2023-07-08T16:03:46;3.80;;;3.63;;
253;SDS011;590;48.772;8.846;2023-07-08T16:06:15;5.03;;;3.50;;
253;SDS011;590;48.772;8.846;2023-07-08T16:08:46;3.37;;;3.17;;
253;SDS011;590;48.772;8.846;2023-07-08T16:11:14;3.93;;;3.73;;